sensor_id;sensor_type;location;lat;lon;timestamp;pressure;altitude;pressure_sealevel;temperature;humidity
15263;BME280;7733;51.554;13.590;2023-07-31T00:01:18;100113.47;;;18.17;92.46
15263;BME280;7733;51.554;13.590;2023-07-31T00:03:46;100111.09;;;18.47;91.64
15263;BME280;7733;51.554;13.590;2023-07-31T00:06:12;100113.03;;;18.26;91.75
15263;BME280;7733;51.554;13.590;2023-07-31T00:08:37;100098.75;;;18.46;91.48
15263;BME280;7733;51.554;13.590;2023-07-31T00:11:03;100100.38;;;18.31;91.74
15263;BME280;7733;51.554;13.590;2023-07-31T00:13:29;100100.38;;;18.14;92.53
15263;BME280;7733;51.554;13.590;2023-07-31T00:15:55;100097.88;;;18.11;91.23
15263;BME280;7733;51.554;13.590;2023-07-31T00:18:20;100090.69;;;18.30;92.16
15263;BME280;7733;51.554;13.590;2023-07-31T00:20:46;100090.78;;;18.29;90.92
15263;BME280;7733;51.554;13.590;2023-07-31T00:23:12;100086.41;;;18.45;90.67
15263;BME280;7733;51.554;13.590;2023-07-31T00:25:38;100094.75;;;18.20;90.20
15263;BME280;7733;51.554;13.590;2023-07-31T00:28:04;100092.81;;;18.23;90.83
15263;BME280;7733;51.554;13.590;2023-07-31T00:30:29;100084.34;;;18.15;90.69
15263;BME280;7733;51.554;13.590;2023-07-31T00:32:55;100087.16;;;18.12;91.31
15263;BME280;7733;51.554;13.590;2023-07-31T00:35:21;100088.38;;;17.88;91.30
15263;BME280;7733;51.554;13.590;2023-07-31T00:37:47;100090.59;;;17.78;91.64
15263;BME280;7733;51.554;13.590;2023-07-31T00:40:12;100083.97;;;18.06;90.84
15263;BME280;7733;51.554;13.590;2023-07-31T00:42:39;100085.69;;;18.07;90.48
15263;BME280;7733;51.554;13.590;2023-07-31T00:45:05;100084.06;;;18.04;90.73
15263;BME280;7733;51.554;13.590;2023-07-31T00:47:31;100081.84;;;18.12;90.55
15263;BME280;7733;51.554;13.590;2023-07-31T00:49:57;100079.13;;;17.78;90.96
15263;BME280;7733;51.554;13.590;2023-07-31T00:52:23;100073.91;;;17.76;91.53
15263;BME280;7733;51.554;13.590;2023-07-31T00:54:50;100069.53;;;17.75;90.41
15263;BME280;7733;51.554;13.590;2023-07-31T00:57:16;100063.81;;;17.66;90.74
15263;BME280;7733;51.554;13.590;2023-07-31T00:59:41;100072.38;;;17.89;89.58
15263;BME280;7733;51.554;13.590;2023-07-31T01:02:07;100070.13;;;17.63;90.76
15263;BME280;7733;51.554;13.590;2023-07-31T01:04:33;100062.66;;;17.71;90.14
15263;BME280;7733;51.554;13.590;2023-07-31T01:07:11;100057.91;;;17.78;90.17
15263;BME280;7733;51.554;13.590;2023-07-31T01:10:02;100062.88;;;17.85;89.97
15263;BME280;7733;51.554;13.590;2023-07-31T01:12:31;100064.13;;;17.96;89.34
15263;BME280;7733;51.554;13.590;2023-07-31T01:15:09;100063.03;;;17.63;90.68
15263;BME280;7733;51.554;13.590;2023-07-31T01:17:38;100060.06;;;17.88;89.29
15263;BME280;7733;51.554;13.590;2023-07-31T01:20:21;100062.53;;;17.37;91.29
15263;BME280;7733;51.554;13.590;2023-07-31T01:23:25;100059.78;;;17.57;91.22
15263;BME280;7733;51.554;13.590;2023-07-31T01:26:19;100055.34;;;17.39;92.20
15263;BME280;7733;51.554;13.590;2023-07-31T01:28:58;100051.97;;;17.54;91.81
15263;BME280;7733;51.554;13.590;2023-07-31T01:31:29;100057.06;;;17.58;90.96
15263;BME280;7733;51.554;13.590;2023-07-31T01:34:00;100055.19;;;17.60;91.04
15263;BME280;7733;51.554;13.590;2023-07-31T01:36:26;100046.22;;;17.82;89.33
15263;BME280;7733;51.554;13.590;2023-07-31T01:38:57;100047.47;;;17.75;89.56
15263;BME280;7733;51.554;13.590;2023-07-31T01:41:23;100054.03;;;17.85;89.16
15263;BME280;7733;51.554;13.590;2023-07-31T01:43:49;100050.88;;;17.58;90.19
15263;BME280;7733;51.554;13.590;2023-07-31T01:46:15;100039.06;;;17.84;88.12
15263;BME280;7733;51.554;13.590;2023-07-31T01:48:40;100043.84;;;18.12;87.09
15263;BME280;7733;51.554;13.590;2023-07-31T01:51:06;100050.97;;;17.75;87.68
15263;BME280;7733;51.554;13.590;2023-07-31T01:53:32;100048.50;;;17.89;87.98
15263;BME280;7733;51.554;13.590;2023-07-31T01:55:58;100047.88;;;17.84;87.51
15263;BME280;7733;51.554;13.590;2023-07-31T01:58:23;100029.16;;;18.05;86.38
15263;BME280;7733;51.554;13.590;2023-07-31T02:00:49;100036.94;;;17.90;86.16
15263;BME280;7733;51.554;13.590;2023-07-31T02:03:15;100041.56;;;17.87;87.44
15263;BME280;7733;51.554;13.590;2023-07-31T02:05:50;100031.03;;;17.85;86.42
15263;BME280;7733;51.554;13.590;2023-07-31T02:08:16;100028.44;;;17.84;86.43
15263;BME280;7733;51.554;13.590;2023-07-31T02:10:42;100031.03;;;17.67;87.06
15263;BME280;7733;51.554;13.590;2023-07-31T02:13:08;100025.88;;;17.63;86.82
15263;BME280;7733;51.554;13.590;2023-07-31T02:15:35;100026.06;;;17.78;86.49
15263;BME280;7733;51.554;13.590;2023-07-31T02:18:00;100019.56;;;17.85;85.82
15263;BME280;7733;51.554;13.590;2023-07-31T02:20:26;100025.88;;;17.63;87.30
15263;BME280;7733;51.554;13.590;2023-07-31T02:22:52;100027.41;;;17.69;86.42
15263;BME280;7733;51.554;13.590;2023-07-31T02:25:17;100024.09;;;17.64;86.75
15263;BME280;7733;51.554;13.590;2023-07-31T02:27:43;100027.78;;;17.79;85.63
15263;BME280;7733;51.554;13.590;2023-07-31T02:30:10;100026.31;;;17.73;85.83
15263;BME280;7733;51.554;13.590;2023-07-31T02:32:35;100028.56;;;17.81;85.17
15263;BME280;7733;51.554;13.590;2023-07-31T02:35:01;100021.94;;;17.72;85.41
15263;BME280;7733;51.554;13.590;2023-07-31T02:37:27;100019.75;;;17.80;86.00
15263;BME280;7733;51.554;13.590;2023-07-31T02:39:55;100021.88;;;17.91;85.69
15263;BME280;7733;51.554;13.590;2023-07-31T02:42:21;100020.94;;;17.75;86.32
15263;BME280;7733;51.554;13.590;2023-07-31T02:44:46;100015.78;;;17.72;85.62
15263;BME280;7733;51.554;13.590;2023-07-31T02:47:12;100012.66;;;17.98;85.37
15263;BME280;7733;51.554;13.590;2023-07-31T02:49:38;100011.13;;;17.94;85.10
15263;BME280;7733;51.554;13.590;2023-07-31T02:52:04;100016.84;;;18.04;84.82
15263;BME280;7733;51.554;13.590;2023-07-31T02:54:30;100015.66;;;18.09;84.64
15263;BME280;7733;51.554;13.590;2023-07-31T02:56:55;100012.09;;;17.74;85.08
15263;BME280;7733;51.554;13.590;2023-07-31T02:59:21;100017.75;;;17.85;84.85
15263;BME280;7733;51.554;13.590;2023-07-31T03:01:47;100011.03;;;17.96;84.70
15263;BME280;7733;51.554;13.590;2023-07-31T03:04:12;100011.28;;;17.91;84.58
15263;BME280;7733;51.554;13.590;2023-07-31T03:06:38;100023.22;;;18.00;84.56
15263;BME280;7733;51.554;13.590;2023-07-31T03:09:04;100021.94;;;17.72;85.98
15263;BME280;7733;51.554;13.590;2023-07-31T03:11:29;100020.31;;;17.87;85.29
15263;BME280;7733;51.554;13.590;2023-07-31T03:13:55;100021.28;;;18.03;85.89
15263;BME280;7733;51.554;13.590;2023-07-31T03:16:21;100024.94;;;17.83;86.30
15263;BME280;7733;51.554;13.590;2023-07-31T03:18:46;100016.63;;;17.72;86.88
15263;BME280;7733;51.554;13.590;2023-07-31T03:21:14;100011.13;;;17.94;86.92
15263;BME280;7733;51.554;13.590;2023-07-31T03:23:40;100010.72;;;17.84;86.51
15263;BME280;7733;51.554;13.590;2023-07-31T03:26:07;100003.06;;;17.96;86.29
15263;BME280;7733;51.554;13.590;2023-07-31T03:28:33;100009.13;;;17.80;87.56
15263;BME280;7733;51.554;13.590;2023-07-31T03:30:59;100010.50;;;17.89;87.20
15263;BME280;7733;51.554;13.590;2023-07-31T03:33:25;100010.41;;;17.90;88.59
15263;BME280;7733;51.554;13.590;2023-07-31T03:35:51;100015.97;;;17.67;89.27
15263;BME280;7733;51.554;13.590;2023-07-31T03:38:18;100013.69;;;17.96;89.05
15263;BME280;7733;51.554;13.590;2023-07-31T03:40:43;100006.31;;;17.66;90.68
15263;BME280;7733;51.554;13.590;2023-07-31T03:43:09;100013.31;;;17.67;92.25
15263;BME280;7733;51.554;13.590;2023-07-31T03:45:35;100005.47;;;17.47;92.50
15263;BME280;7733;51.554;13.590;2023-07-31T03:48:01;100003.53;;;17.69;91.77
15263;BME280;7733;51.554;13.590;2023-07-31T03:50:27;100006.25;;;17.49;93.20
15263;BME280;7733;51.554;13.590;2023-07-31T03:52:53;100011.06;;;17.41;93.98
15263;BME280;7733;51.554;13.590;2023-07-31T03:55:18;100008.44;;;17.58;93.75
15263;BME280;7733;51.554;13.590;2023-07-31T03:57:44;100008.28;;;17.44;94.82
15263;BME280;7733;51.554;13.590;2023-07-31T04:00:10;99997.13;;;17.73;94.81
15263;BME280;7733;51.554;13.590;2023-07-31T04:02:36;100004.47;;;17.49;95.25
15263;BME280;7733;51.554;13.590;2023-07-31T04:05:02;100006.03;;;17.72;94.17
15263;BME280;7733;51.554;13.590;2023-07-31T04:07:28;99998.47;;;17.46;96.10
15263;BME280;7733;51.554;13.590;2023-07-31T04:09:53;100000.88;;;17.69;95.89
15263;BME280;7733;51.554;13.590;2023-07-31T04:12:19;99997.06;;;17.56;95.69
15263;BME280;7733;51.554;13.590;2023-07-31T04:14:45;99998.16;;;17.52;96.65
15263;BME280;7733;51.554;13.590;2023-07-31T04:17:10;99996.81;;;18.14;93.56
15263;BME280;7733;51.554;13.590;2023-07-31T04:19:36;99997.31;;;17.87;95.62
15263;BME280;7733;51.554;13.590;2023-07-31T04:22:02;99992.78;;;17.89;95.64
15263;BME280;7733;51.554;13.590;2023-07-31T04:24:28;99987.72;;;17.66;96.43
15263;BME280;7733;51.554;13.590;2023-07-31T04:26:53;99983.09;;;17.71;96.88
15263;BME280;7733;51.554;13.590;2023-07-31T04:29:19;99979.63;;;18.38;93.98
15263;BME280;7733;51.554;13.590;2023-07-31T04:31:45;99975.84;;;17.92;95.35
15263;BME280;7733;51.554;13.590;2023-07-31T04:34:11;99980.03;;;18.31;93.57
15263;BME280;7733;51.554;13.590;2023-07-31T04:36:37;99976.38;;;18.16;94.52
15263;BME280;7733;51.554;13.590;2023-07-31T04:39:03;99975.50;;;18.33;93.68
15263;BME280;7733;51.554;13.590;2023-07-31T04:41:29;99978.31;;;17.95;95.36
15263;BME280;7733;51.554;13.590;2023-07-31T04:43:55;99974.28;;;17.88;95.87
15263;BME280;7733;51.554;13.590;2023-07-31T04:48:48;99968.91;;;18.07;96.80
15263;BME280;7733;51.554;13.590;2023-07-31T04:51:14;99976.91;;;17.71;97.58
15263;BME280;7733;51.554;13.590;2023-07-31T04:53:40;99969.50;;;17.94;96.74
15263;BME280;7733;51.554;13.590;2023-07-31T04:56:06;99966.06;;;18.10;95.96
15263;BME280;7733;51.554;13.590;2023-07-31T04:58:31;99966.06;;;18.10;96.81
15263;BME280;7733;51.554;13.590;2023-07-31T05:00:57;99965.13;;;18.11;95.90
15263;BME280;7733;51.554;13.590;2023-07-31T05:03:23;99961.13;;;18.19;95.05
15263;BME280;7733;51.554;13.590;2023-07-31T05:05:49;99958.72;;;17.98;95.94
15263;BME280;7733;51.554;13.590;2023-07-31T05:08:16;99956.06;;;18.15;95.78
15263;BME280;7733;51.554;13.590;2023-07-31T05:10:43;99955.19;;;18.32;95.20
15263;BME280;7733;51.554;13.590;2023-07-31T05:13:09;99952.19;;;18.38;95.59
15263;BME280;7733;51.554;13.590;2023-07-31T05:15:34;99949.84;;;17.99;96.36
15263;BME280;7733;51.554;13.590;2023-07-31T05:18:00;99953.59;;;17.77;96.23
15263;BME280;7733;51.554;13.590;2023-07-31T05:20:26;99948.34;;;18.10;96.47
15263;BME280;7733;51.554;13.590;2023-07-31T05:22:53;99942.47;;;18.21;95.10
15263;BME280;7733;51.554;13.590;2023-07-31T05:25:19;99940.94;;;18.00;96.18
15263;BME280;7733;51.554;13.590;2023-07-31T05:27:45;99939.69;;;18.24;96.34
15263;BME280;7733;51.554;13.590;2023-07-31T05:30:10;99941.03;;;18.48;94.04
15263;BME280;7733;51.554;13.590;2023-07-31T05:32:36;99946.88;;;18.38;94.38
15263;BME280;7733;51.554;13.590;2023-07-31T05:35:02;99950.47;;;18.04;95.75
15263;BME280;7733;51.554;13.590;2023-07-31T05:37:28;99944.50;;;18.16;95.50
15263;BME280;7733;51.554;13.590;2023-07-31T05:39:53;99937.50;;;17.98;95.69
15263;BME280;7733;51.554;13.590;2023-07-31T05:42:19;99945.72;;;18.43;94.27
15263;BME280;7733;51.554;13.590;2023-07-31T05:44:45;99942.00;;;18.30;94.89
15263;BME280;7733;51.554;13.590;2023-07-31T05:47:10;99946.88;;;18.22;94.62
15263;BME280;7733;51.554;13.590;2023-07-31T05:49:36;99947.66;;;18.24;95.03
15263;BME280;7733;51.554;13.590;2023-07-31T05:52:02;99937.09;;;18.55;94.46
15263;BME280;7733;51.554;13.590;2023-07-31T05:54:28;99935.03;;;18.45;96.36
15263;BME280;7733;51.554;13.590;2023-07-31T05:56:53;99941.03;;;18.48;94.06
15263;BME280;7733;51.554;13.590;2023-07-31T05:59:19;99946.59;;;18.44;93.66
15263;BME280;7733;51.554;13.590;2023-07-31T06:01:45;99940.44;;;18.59;94.90
15263;BME280;7733;51.554;13.590;2023-07-31T06:04:10;99939.97;;;18.18;95.71
15263;BME280;7733;51.554;13.590;2023-07-31T06:06:36;99936.78;;;18.29;95.53
15263;BME280;7733;51.554;13.590;2023-07-31T06:09:02;99930.09;;;18.37;94.63
15263;BME280;7733;51.554;13.590;2023-07-31T06:11:29;99932.31;;;18.29;95.58
15263;BME280;7733;51.554;13.590;2023-07-31T06:13:55;99939.28;;;18.14;96.81
15263;BME280;7733;51.554;13.590;2023-07-31T06:16:20;99928.75;;;17.96;98.44
15263;BME280;7733;51.554;13.590;2023-07-31T06:18:47;99941.78;;;18.00;98.72
15263;BME280;7733;51.554;13.590;2023-07-31T06:21:13;99932.75;;;18.04;99.56
15263;BME280;7733;51.554;13.590;2023-07-31T06:23:39;99942.03;;;17.96;100.00
15263;BME280;7733;51.554;13.590;2023-07-31T06:26:04;99944.75;;;18.11;100.00
15263;BME280;7733;51.554;13.590;2023-07-31T06:28:31;99935.50;;;17.68;100.00
15263;BME280;7733;51.554;13.590;2023-07-31T06:30:58;99935.66;;;17.82;100.00
15263;BME280;7733;51.554;13.590;2023-07-31T06:33:24;99932.19;;;17.98;100.00
15263;BME280;7733;51.554;13.590;2023-07-31T06:35:51;99930.03;;;18.21;100.00
15263;BME280;7733;51.554;13.590;2023-07-31T06:38:22;99953.25;;;18.01;100.00
15263;BME280;7733;51.554;13.590;2023-07-31T06:40:48;99942.50;;;18.04;100.00
15263;BME280;7733;51.554;13.590;2023-07-31T06:43:14;99943.03;;;18.10;100.00
15263;BME280;7733;51.554;13.590;2023-07-31T06:45:40;99936.97;;;17.74;100.00
15263;BME280;7733;51.554;13.590;2023-07-31T06:48:05;99942.78;;;18.32;100.00
15263;BME280;7733;51.554;13.590;2023-07-31T06:50:32;99936.25;;;18.22;100.00
15263;BME280;7733;51.554;13.590;2023-07-31T06:52:58;99936.09;;;18.25;100.00
15263;BME280;7733;51.554;13.590;2023-07-31T06:55:25;99928.84;;;18.11;100.00
15263;BME280;7733;51.554;13.590;2023-07-31T06:57:54;99937.34;;;18.01;100.00
15263;BME280;7733;51.554;13.590;2023-07-31T07:00:22;99935.69;;;18.66;100.00
15263;BME280;7733;51.554;13.590;2023-07-31T07:02:49;99940.41;;;18.43;100.00
15263;BME280;7733;51.554;13.590;2023-07-31T07:05:17;99935.50;;;18.36;100.00
15263;BME280;7733;51.554;13.590;2023-07-31T07:07:43;99938.06;;;18.04;100.00
15263;BME280;7733;51.554;13.590;2023-07-31T07:10:09;99935.25;;;18.07;100.00
15263;BME280;7733;51.554;13.590;2023-07-31T07:12:35;99932.34;;;17.94;100.00
15263;BME280;7733;51.554;13.590;2023-07-31T07:15:02;99929.91;;;18.24;100.00
15263;BME280;7733;51.554;13.590;2023-07-31T07:17:29;99944.06;;;18.08;100.00
15263;BME280;7733;51.554;13.590;2023-07-31T07:19:59;99927.38;;;18.06;100.00
15263;BME280;7733;51.554;13.590;2023-07-31T07:22:26;99929.50;;;18.32;100.00
15263;BME280;7733;51.554;13.590;2023-07-31T07:24:53;99933.69;;;18.36;100.00
15263;BME280;7733;51.554;13.590;2023-07-31T07:27:18;99918.56;;;18.21;100.00
15263;BME280;7733;51.554;13.590;2023-07-31T07:29:45;99917.13;;;18.48;100.00
15263;BME280;7733;51.554;13.590;2023-07-31T07:32:11;99927.66;;;18.17;100.00
15263;BME280;7733;51.554;13.590;2023-07-31T07:34:37;99926.63;;;18.52;100.00
15263;BME280;7733;51.554;13.590;2023-07-31T07:37:03;99924.63;;;18.40;100.00
15263;BME280;7733;51.554;13.590;2023-07-31T07:39:29;99930.97;;;18.71;100.00
15263;BME280;7733;51.554;13.590;2023-07-31T07:41:55;99939.28;;;18.65;100.00
15263;BME280;7733;51.554;13.590;2023-07-31T07:44:21;99926.63;;;18.86;100.00
15263;BME280;7733;51.554;13.590;2023-07-31T07:46:47;99929.59;;;18.79;100.00
15263;BME280;7733;51.554;13.590;2023-07-31T07:49:12;99921.13;;;18.73;100.00
15263;BME280;7733;51.554;13.590;2023-07-31T07:51:38;99926.47;;;18.55;100.00
15263;BME280;7733;51.554;13.590;2023-07-31T07:54:04;99931.41;;;18.79;100.00
15263;BME280;7733;51.554;13.590;2023-07-31T07:56:30;99926.69;;;19.15;98.57
15263;BME280;7733;51.554;13.590;2023-07-31T07:58:55;99918.22;;;19.09;100.00
15263;BME280;7733;51.554;13.590;2023-07-31T08:01:21;99924.03;;;19.15;99.53
15263;BME280;7733;51.554;13.590;2023-07-31T08:03:48;99922.75;;;18.91;99.59
15263;BME280;7733;51.554;13.590;2023-07-31T08:06:14;99920.59;;;19.13;99.01
15263;BME280;7733;51.554;13.590;2023-07-31T08:08:40;99917.31;;;19.56;98.75
15263;BME280;7733;51.554;13.590;2023-07-31T08:11:06;99923.56;;;19.39;98.18
15263;BME280;7733;51.554;13.590;2023-07-31T08:13:32;99936.72;;;19.10;99.02
15263;BME280;7733;51.554;13.590;2023-07-31T08:15:58;99932.44;;;19.24;99.91
15263;BME280;7733;51.554;13.590;2023-07-31T08:18:23;99923.47;;;19.40;98.50
15263;BME280;7733;51.554;13.590;2023-07-31T08:20:50;99919.38;;;19.35;99.81
15263;BME280;7733;51.554;13.590;2023-07-31T08:23:16;99915.19;;;19.31;97.67
15263;BME280;7733;51.554;13.590;2023-07-31T08:25:42;99914.25;;;19.32;97.72
15263;BME280;7733;51.554;13.590;2023-07-31T08:28:08;99914.78;;;19.23;97.99
15263;BME280;7733;51.554;13.590;2023-07-31T08:30:34;99913.22;;;19.19;97.49
15263;BME280;7733;51.554;13.590;2023-07-31T08:33:00;99909.09;;;19.29;97.29
15263;BME280;7733;51.554;13.590;2023-07-31T08:35:26;99906.31;;;19.46;96.66
15263;BME280;7733;51.554;13.590;2023-07-31T08:37:54;99913.16;;;19.66;95.71
15263;BME280;7733;51.554;13.590;2023-07-31T08:40:20;99924.66;;;19.51;95.90
15263;BME280;7733;51.554;13.590;2023-07-31T08:42:49;99922.00;;;19.51;96.09
15263;BME280;7733;51.554;13.590;2023-07-31T08:45:17;99928.91;;;19.85;94.74
15263;BME280;7733;51.554;13.590;2023-07-31T08:47:50;99934.63;;;19.47;94.95
15263;BME280;7733;51.554;13.590;2023-07-31T08:50:19;99933.50;;;19.51;93.31
15263;BME280;7733;51.554;13.590;2023-07-31T08:52:47;99930.09;;;19.49;93.79
15263;BME280;7733;51.554;13.590;2023-07-31T08:55:13;99928.81;;;19.56;93.71
15263;BME280;7733;51.554;13.590;2023-07-31T08:57:39;99924.13;;;19.75;92.39
15263;BME280;7733;51.554;13.590;2023-07-31T09:00:09;99927.72;;;19.74;91.70
15263;BME280;7733;51.554;13.590;2023-07-31T09:02:55;99920.06;;;19.98;91.48
15263;BME280;7733;51.554;13.590;2023-07-31T09:05:23;99922.00;;;20.11;91.45
15263;BME280;7733;51.554;13.590;2023-07-31T09:07:50;99920.16;;;19.83;91.06
15263;BME280;7733;51.554;13.590;2023-07-31T09:10:16;99919.06;;;20.15;90.30
15263;BME280;7733;51.554;13.590;2023-07-31T09:12:43;99918.97;;;20.17;90.45
15263;BME280;7733;51.554;13.590;2023-07-31T09:15:09;99922.09;;;20.38;89.15
15263;BME280;7733;51.554;13.590;2023-07-31T09:17:37;99909.19;;;20.60;89.04
15263;BME280;7733;51.554;13.590;2023-07-31T09:20:15;99914.91;;;20.54;87.44
15263;BME280;7733;51.554;13.590;2023-07-31T09:22:42;99900.53;;;20.56;87.78
15263;BME280;7733;51.554;13.590;2023-07-31T09:25:25;99912.75;;;20.46;87.36
15263;BME280;7733;51.554;13.590;2023-07-31T09:28:02;99921.78;;;20.44;86.62
15263;BME280;7733;51.554;13.590;2023-07-31T09:30:28;99920.25;;;20.54;87.18
15263;BME280;7733;51.554;13.590;2023-07-31T09:33:04;99915.81;;;20.81;85.82
15263;BME280;7733;51.554;13.590;2023-07-31T09:35:34;99920.78;;;20.30;86.95
15263;BME280;7733;51.554;13.590;2023-07-31T09:38:09;99922.72;;;20.57;84.96
15263;BME280;7733;51.554;13.590;2023-07-31T09:40:41;99926.31;;;20.42;85.71
15263;BME280;7733;51.554;13.590;2023-07-31T09:43:10;99929.09;;;20.54;85.10
15263;BME280;7733;51.554;13.590;2023-07-31T09:45:41;99918.63;;;20.51;85.39
15263;BME280;7733;51.554;13.590;2023-07-31T09:48:16;99919.84;;;20.31;85.88
15263;BME280;7733;51.554;13.590;2023-07-31T09:50:44;99921.06;;;20.40;84.82
15263;BME280;7733;51.554;13.590;2023-07-31T09:53:10;99911.41;;;20.53;84.63
15263;BME280;7733;51.554;13.590;2023-07-31T09:55:38;99912.59;;;20.19;85.64
15263;BME280;7733;51.554;13.590;2023-07-31T09:58:08;99913.97;;;20.55;84.58
15263;BME280;7733;51.554;13.590;2023-07-31T10:00:35;99912.50;;;20.35;85.22
15263;BME280;7733;51.554;13.590;2023-07-31T10:03:07;99915.16;;;20.35;85.06
15263;BME280;7733;51.554;13.590;2023-07-31T10:05:47;99910.88;;;20.18;86.11
15263;BME280;7733;51.554;13.590;2023-07-31T10:08:17;99925.66;;;20.52;84.29
15263;BME280;7733;51.554;13.590;2023-07-31T10:10:46;99913.94;;;20.26;84.32
15263;BME280;7733;51.554;13.590;2023-07-31T10:13:16;99912.72;;;20.60;84.18
15263;BME280;7733;51.554;13.590;2023-07-31T10:15:43;99901.78;;;20.65;83.70
15263;BME280;7733;51.554;13.590;2023-07-31T10:18:09;99914.16;;;20.52;83.71
15263;BME280;7733;51.554;13.590;2023-07-31T10:20:36;99911.94;;;20.58;82.63
15263;BME280;7733;51.554;13.590;2023-07-31T10:23:02;99907.22;;;20.63;83.43
15263;BME280;7733;51.554;13.590;2023-07-31T10:25:30;99900.81;;;20.66;83.00
15263;BME280;7733;51.554;13.590;2023-07-31T10:27:57;99899.28;;;20.62;82.98
15263;BME280;7733;51.554;13.590;2023-07-31T10:30:28;99891.75;;;20.83;82.76
15263;BME280;7733;51.554;13.590;2023-07-31T10:32:57;99884.41;;;20.86;81.92
15263;BME280;7733;51.554;13.590;2023-07-31T10:35:23;99881.00;;;21.11;82.41
15263;BME280;7733;51.554;13.590;2023-07-31T10:37:49;99875.41;;;21.02;81.39
15263;BME280;7733;51.554;13.590;2023-07-31T10:42:51;99871.31;;;20.96;83.04
15263;BME280;7733;51.554;13.590;2023-07-31T10:45:42;99872.56;;;21.32;81.13
15263;BME280;7733;51.554;13.590;2023-07-31T10:48:16;99872.03;;;21.39;81.38
15263;BME280;7733;51.554;13.590;2023-07-31T10:50:59;99871.13;;;20.99;80.10
15263;BME280;7733;51.554;13.590;2023-07-31T10:53:32;99873.34;;;21.19;79.78
15263;BME280;7733;51.554;13.590;2023-07-31T10:56:07;99858.50;;;21.15;80.03
15263;BME280;7733;51.554;13.590;2023-07-31T10:58:34;99860.94;;;21.33;79.69
15263;BME280;7733;51.554;13.590;2023-07-31T11:01:03;99858.38;;;21.04;78.94
15263;BME280;7733;51.554;13.590;2023-07-31T11:03:50;99860.28;;;21.29;79.06
15263;BME280;7733;51.554;13.590;2023-07-31T11:06:19;99857.75;;;21.40;78.29
15263;BME280;7733;51.554;13.590;2023-07-31T11:08:48;99855.22;;;21.51;78.51
15263;BME280;7733;51.554;13.590;2023-07-31T11:11:17;99851.91;;;21.61;78.48
15263;BME280;7733;51.554;13.590;2023-07-31T11:13:47;99845.53;;;21.76;77.94
15263;BME280;7733;51.554;13.590;2023-07-31T11:16:20;99844.34;;;21.80;77.89
15263;BME280;7733;51.554;13.590;2023-07-31T11:18:48;99843.59;;;21.78;77.93
15263;BME280;7733;51.554;13.590;2023-07-31T11:21:23;99839.09;;;22.42;75.87
15263;BME280;7733;51.554;13.590;2023-07-31T11:23:52;99844.25;;;21.94;77.09
15263;BME280;7733;51.554;13.590;2023-07-31T11:26:19;99842.97;;;22.38;76.40
15263;BME280;7733;51.554;13.590;2023-07-31T11:28:49;99849.13;;;22.51;75.39
15263;BME280;7733;51.554;13.590;2023-07-31T11:31:17;99835.16;;;22.22;76.00
15263;BME280;7733;51.554;13.590;2023-07-31T11:33:43;99843.56;;;22.05;76.71
15263;BME280;7733;51.554;13.590;2023-07-31T11:36:20;99842.75;;;21.90;76.94
15263;BME280;7733;51.554;13.590;2023-07-31T11:38:46;99835.28;;;21.95;76.68
15263;BME280;7733;51.554;13.590;2023-07-31T11:41:15;99837.03;;;22.09;77.05
15263;BME280;7733;51.554;13.590;2023-07-31T11:43:42;99834.00;;;21.88;77.03
15263;BME280;7733;51.554;13.590;2023-07-31T11:46:07;99830.81;;;21.83;77.16
15263;BME280;7733;51.554;13.590;2023-07-31T11:48:37;99839.81;;;22.07;76.11
15263;BME280;7733;51.554;13.590;2023-07-31T11:51:10;99845.38;;;22.04;76.78
15263;BME280;7733;51.554;13.590;2023-07-31T11:53:58;99829.31;;;21.92;76.31
15263;BME280;7733;51.554;13.590;2023-07-31T11:56:26;99824.16;;;22.01;76.12
15263;BME280;7733;51.554;13.590;2023-07-31T11:58:59;99828.22;;;21.69;77.16
15263;BME280;7733;51.554;13.590;2023-07-31T12:01:28;99822.25;;;21.78;77.63
15263;BME280;7733;51.554;13.590;2023-07-31T12:03:54;99809.63;;;22.31;76.65
15263;BME280;7733;51.554;13.590;2023-07-31T12:06:21;99819.69;;;22.14;76.23
15263;BME280;7733;51.554;13.590;2023-07-31T12:08:47;99809.63;;;22.31;75.13
15263;BME280;7733;51.554;13.590;2023-07-31T12:11:14;99807.19;;;22.64;74.45
15263;BME280;7733;51.554;13.590;2023-07-31T12:13:40;99815.03;;;22.05;75.58
15263;BME280;7733;51.554;13.590;2023-07-31T12:16:06;99809.19;;;22.37;75.60
15263;BME280;7733;51.554;13.590;2023-07-31T12:18:37;99803.56;;;22.65;75.20
15263;BME280;7733;51.554;13.590;2023-07-31T12:21:08;99802.38;;;22.57;75.46
15263;BME280;7733;51.554;13.590;2023-07-31T12:23:37;99801.47;;;22.45;74.99
15263;BME280;7733;51.554;13.590;2023-07-31T12:28:49;99799.38;;;22.61;74.75
15263;BME280;7733;51.554;13.590;2023-07-31T12:31:17;99793.28;;;22.59;75.01
15263;BME280;7733;51.554;13.590;2023-07-31T12:33:44;99793.81;;;22.28;74.80
15263;BME280;7733;51.554;13.590;2023-07-31T12:36:30;99787.03;;;22.71;75.14
15263;BME280;7733;51.554;13.590;2023-07-31T12:39:00;99785.94;;;23.11;73.21
15263;BME280;7733;51.554;13.590;2023-07-31T12:41:26;99790.28;;;22.64;75.16
15263;BME280;7733;51.554;13.590;2023-07-31T12:43:52;99788.91;;;22.95;74.20
15263;BME280;7733;51.554;13.590;2023-07-31T12:46:18;99784.91;;;23.00;74.14
15263;BME280;7733;51.554;13.590;2023-07-31T12:48:44;99778.66;;;22.89;74.19
15263;BME280;7733;51.554;13.590;2023-07-31T12:51:09;99772.47;;;23.23;73.69
15263;BME280;7733;51.554;13.590;2023-07-31T12:53:35;99760.44;;;23.64;72.34
15263;BME280;7733;51.554;13.590;2023-07-31T12:56:02;99759.28;;;23.44;72.39
15263;BME280;7733;51.554;13.590;2023-07-31T12:58:28;99758.81;;;23.15;74.00
15263;BME280;7733;51.554;13.590;2023-07-31T13:00:53;99765.63;;;23.19;73.90
15263;BME280;7733;51.554;13.590;2023-07-31T13:03:19;99755.88;;;23.07;73.17
15263;BME280;7733;51.554;13.590;2023-07-31T13:05:45;99749.97;;;22.91;72.99